Time;durP1;ratioP1;P1;durP2;ratioP2;P2;SDS_P1;SDS_P2;PMS_P1;PMS_P2;Temp;Humidity;BMP_temperature;BMP_pressure;BME280_temperature;BME280_humidity;BME280_pressure;Samples;Min_cycle;Max_cycle;Signal;HPM_P1;HPM_P2
2024/01/06 00:01:46;;;;;;;68.32;64.35;;;10.40;90.80;;;;;;12662635;28;20035;-74
2024/01/06 00:07:47;;;;;;;163.02;156.50;;;10.40;91.00;;;;;;12662444;28;20024;-75
2024/01/06 00:13:49;;;;;;;144.15;138.77;;;10.50;90.90;;;;;;12662167;28;20028;-75
2024/01/06 00:19:51;;;;;;;58.83;55.90;;;10.50;90.90;;;;;;12661787;28;20032;-75
2024/01/06 00:25:52;;;;;;;126.93;122.28;;;10.50;90.90;;;;;;12661599;28;20020;-73
2024/01/06 00:31:54;;;;;;;90.35;85.97;;;10.50;90.80;;;;;;12661277;28;20341;-75
2024/01/06 00:37:55;;;;;;;38.22;35.75;;;10.50;90.70;;;;;;12661207;28;20032;-75
2024/01/06 00:43:57;;;;;;;55.10;52.08;;;10.30;90.60;;;;;;12659388;28;20038;-75
2024/01/06 00:49:59;;;;;;;30.95;28.95;;;10.20;90.90;;;;;;12660429;28;20024;-75
2024/01/06 00:56:00;;;;;;;49.90;47.38;;;10.20;91.10;;;;;;12660015;28;20036;-76
2024/01/06 01:02:02;;;;;;;33.78;31.90;;;10.20;91.10;;;;;;12659832;28;20347;-75
2024/01/06 01:08:04;;;;;;;34.20;31.92;;;10.20;91.20;;;;;;12659568;28;20028;-76
2024/01/06 01:14:05;;;;;;;35.38;33.35;;;10.30;91.10;;;;;;12659256;28;20028;-76
2024/01/06 01:20:08;;;;;;;120.93;116.07;;;10.40;91.00;;;;;;12624728;28;20043;-76
2024/01/06 01:26:10;;;;;;;122.32;117.28;;;10.30;90.80;;;;;;12658683;28;20024;-75
2024/01/06 01:32:11;;;;;;;110.50;106.25;;;10.30;90.80;;;;;;12658348;28;20341;-76
2024/01/06 01:38:13;;;;;;;49.08;46.85;;;10.30;91.10;;;;;;12658020;28;20051;-77
2024/01/06 01:44:15;;;;;;;25.92;24.63;;;10.40;91.10;;;;;;12657883;28;20334;-76
2024/01/06 01:50:20;;;;;;;30.85;29.45;;;10.50;90.90;;;;;;12657537;28;20032;-75
2024/01/06 01:56:21;;;;;;;26.17;24.95;;;10.50;90.90;;;;;;12638767;28;20042;-76
2024/01/06 02:02:23;;;;;;;41.05;39.25;;;10.50;90.80;;;;;;12656876;28;20036;-75
2024/01/06 02:08:25;;;;;;;128.65;124.03;;;10.60;90.80;;;;;;12656638;28;20340;-75
2024/01/06 02:14:26;;;;;;;136.02;130.98;;;10.50;90.70;;;;;;12656376;28;20028;-75
2024/01/06 02:20:30;;;;;;;102.60;98.88;;;10.50;90.80;;;;;;12638612;28;20058;-74
2024/01/06 02:26:32;;;;;;;111.47;106.88;;;10.50;90.60;;;;;;12637765;28;20036;-76
2024/01/06 02:32:34;;;;;;;105.13;101.18;;;10.30;90.50;;;;;;12637543;28;20032;-73
2024/01/06 02:38:35;;;;;;;26.25;25.05;;;10.20;90.60;;;;;;12655103;28;20028;-73
2024/01/06 02:44:37;;;;;;;43.03;41.25;;;10.20;90.90;;;;;;12620448;28;20028;-73
2024/01/06 02:50:39;;;;;;;40.42;38.58;;;10.40;90.90;;;;;;12636736;28;20028;-73
2024/01/06 02:56:40;;;;;;;113.78;109.53;;;10.30;90.70;;;;;;12654509;28;20044;-73
2024/01/06 03:02:42;;;;;;;122.43;117.97;;;10.20;90.60;;;;;;12654389;28;20356;-76
2024/01/06 03:08:44;;;;;;;25.25;24.10;;;10.20;90.80;;;;;;12635586;28;20023;-76
2024/01/06 03:14:45;;;;;;;33.80;32.40;;;10.20;90.80;;;;;;12636091;28;20352;-75
2024/01/06 03:20:47;;;;;;;37.83;36.15;;;10.20;90.90;;;;;;12653822;28;20032;-76
2024/01/06 03:26:48;;;;;;;44.30;42.55;;;10.20;90.90;;;;;;12653765;28;20441;-75
2024/01/06 03:32:50;;;;;;;34.88;33.17;;;10.20;90.90;;;;;;12653597;28;20429;-74
2024/01/06 03:38:52;;;;;;;32.25;30.90;;;10.20;91.00;;;;;;12635383;28;20040;-75
2024/01/06 03:44:53;;;;;;;32.55;31.17;;;10.20;91.00;;;;;;12653331;28;20032;-76
2024/01/06 03:50:55;;;;;;;51.40;49.15;;;10.20;91.00;;;;;;12653236;28;20035;-75
2024/01/06 03:56:56;;;;;;;45.92;44.13;;;10.30;91.00;;;;;;12653008;28;20042;-76
2024/01/06 04:02:58;;;;;;;80.95;77.72;;;10.30;91.00;;;;;;12652826;28;20028;-75
2024/01/06 04:09:00;;;;;;;36.30;34.80;;;10.30;90.90;;;;;;12652807;28;20356;-76
2024/01/06 04:15:02;;;;;;;24.50;23.33;;;10.30;90.90;;;;;;12634693;28;20334;-74
2024/01/06 04:21:08;;;;;;;33.50;32.03;;;10.40;90.90;;;;;;12642339;28;20028;-75
2024/01/06 04:27:10;;;;;;;23.20;22.10;;;10.50;90.90;;;;;;12662501;28;20468;-74
2024/01/06 04:33:11;;;;;;;62.13;59.78;;;10.50;90.70;;;;;;12661281;28;20028;-74
2024/01/06 04:39:13;;;;;;;95.72;92.32;;;10.40;90.70;;;;;;12660871;28;20032;-74
2024/01/06 04:45:15;;;;;;;120.45;116.20;;;10.30;90.80;;;;;;12642776;28;20344;-74
2024/01/06 04:51:17;;;;;;;144.25;139.13;;;10.40;90.90;;;;;;12660494;28;20028;-74
2024/01/06 04:57:20;;;;;;;26.92;25.70;;;10.40;90.80;;;;;;12660140;28;20047;-74
2024/01/06 05:03:22;;;;;;;123.82;119.28;;;10.40;90.70;;;;;;12641862;28;20036;-74
2024/01/06 05:09:23;;;;;;;27.00;25.73;;;10.40;90.80;;;;;;12659742;28;20440;-74
2024/01/06 05:15:25;;;;;;;74.18;71.35;;;10.40;90.80;;;;;;12659325;28;20356;-75
2024/01/06 05:21:27;;;;;;;65.65;62.90;;;10.40;90.80;;;;;;12658927;28;20036;-74
2024/01/06 05:27:30;;;;;;;51.40;49.38;;;10.40;90.80;;;;;;12640702;28;20035;-74
2024/01/06 05:33:36;;;;;;;38.10;36.47;;;10.40;90.80;;;;;;12640004;28;20035;-74
2024/01/06 05:39:39;;;;;;;123.90;119.18;;;10.40;90.80;;;;;;12658074;28;20032;-74
2024/01/06 05:45:44;;;;;;;114.88;110.78;;;10.50;90.80;;;;;;12657763;28;20340;-74
2024/01/06 05:51:46;;;;;;;60.67;58.03;;;10.60;90.90;;;;;;12657718;28;20028;-74
2024/01/06 05:57:47;;;;;;;117.47;113.15;;;10.60;90.80;;;;;;12657128;28;20043;-74
2024/01/06 06:03:50;;;;;;;124.97;120.53;;;10.60;90.80;;;;;;12638857;28;20106;-74
2024/01/06 06:09:53;;;;;;;134.65;129.82;;;10.60;90.80;;;;;;12622125;28;20044;-74
2024/01/06 06:15:55;;;;;;;90.43;87.10;;;10.60;90.80;;;;;;12657241;28;20276;-74
2024/01/06 06:21:56;;;;;;;124.28;119.70;;;10.60;90.80;;;;;;12655999;28;20041;-74
2024/01/06 06:27:58;;;;;;;130.48;125.75;;;10.60;90.90;;;;;;12655795;28;20024;-74
2024/01/06 06:33:59;;;;;;;130.27;125.65;;;10.60;90.80;;;;;;12655589;28;20028;-74
2024/01/06 06:40:01;;;;;;;102.90;99.18;;;10.50;90.80;;;;;;12654379;28;20027;-74
2024/01/06 06:46:03;;;;;;;14.82;14.05;;;10.50;90.90;;;;;;12637087;28;20028;-74
2024/01/06 06:52:06;;;;;;;85.75;82.50;;;10.50;90.90;;;;;;12654457;28;20032;-73
2024/01/06 06:58:08;;;;;;;55.47;53.38;;;10.50;90.80;;;;;;12622287;22;20465;-74
2024/01/06 07:04:10;;;;;;;76.72;73.88;;;10.50;90.80;;;;;;12569683;28;20036;-73
2024/01/06 07:10:12;;;;;;;59.33;57.22;;;10.50;90.80;;;;;;12603984;28;20464;-74
2024/01/06 07:16:13;;;;;;;16.05;15.30;;;10.50;90.80;;;;;;12569506;28;20047;-74
2024/01/06 07:22:18;;;;;;;112.57;108.63;;;10.60;90.90;;;;;;12603560;28;20345;-74
2024/01/06 07:28:20;;;;;;;121.35;117.07;;;10.60;90.70;;;;;;12603487;28;20032;-74
2024/01/06 07:34:22;;;;;;;139.23;134.38;;;10.50;90.70;;;;;;12603378;28;20040;-74
2024/01/06 07:40:25;;;;;;;30.38;28.98;;;10.50;90.90;;;;;;12603885;28;20029;-75
2024/01/06 07:46:27;;;;;;;28.15;26.92;;;10.50;90.90;;;;;;12603106;28;20032;-75
2024/01/06 07:52:28;;;;;;;37.33;35.67;;;10.60;90.80;;;;;;12605408;28;20095;-75
2024/01/06 07:58:30;;;;;;;124.20;119.78;;;10.60;90.80;;;;;;12612521;28;20047;-74
2024/01/06 08:04:31;;;;;;;132.00;127.32;;;10.50;90.80;;;;;;12594555;28;20048;-74
2024/01/06 08:10:33;;;;;;;141.93;136.70;;;10.50;90.90;;;;;;12612805;28;20036;-74
2024/01/06 08:16:36;;;;;;;128.57;123.97;;;10.50;90.90;;;;;;12593999;28;20041;-74
2024/01/06 08:22:37;;;;;;;133.75;128.95;;;10.50;91.00;;;;;;12611412;28;20033;-74
2024/01/06 08:28:39;;;;;;;69.82;66.88;;;10.60;91.00;;;;;;12611153;28;20429;-74
2024/01/06 08:34:45;;;;;;;123.10;118.68;;;10.60;91.00;;;;;;12610983;28;20032;-74
2024/01/06 08:40:48;;;;;;;98.97;95.28;;;10.60;90.90;;;;;;12610749;28;20045;-74
2024/01/06 08:46:50;;;;;;;90.10;86.78;;;10.60;90.90;;;;;;12610409;28;20028;-74
2024/01/06 08:52:51;;;;;;;141.05;135.95;;;10.60;91.00;;;;;;12592386;28;20036;-74
2024/01/06 08:58:53;;;;;;;130.38;125.75;;;10.70;91.00;;;;;;12592021;28;20039;-74
2024/01/06 09:04:55;;;;;;;107.65;103.68;;;10.70;90.90;;;;;;12608545;28;20078;-74
2024/01/06 09:10:58;;;;;;;111.90;107.78;;;10.70;90.90;;;;;;12591446;28;20036;-74
2024/01/06 09:17:00;;;;;;;120.18;115.68;;;10.70;91.00;;;;;;12609678;28;20032;-74
2024/01/06 09:23:01;;;;;;;161.88;155.95;;;10.70;91.00;;;;;;12590832;28;20033;-74
2024/01/06 09:29:03;;;;;;;153.95;148.18;;;10.70;91.00;;;;;;12608451;28;20029;-74
2024/01/06 09:35:05;;;;;;;48.42;46.50;;;10.70;91.10;;;;;;12608251;28;20032;-74
2024/01/06 09:41:07;;;;;;;135.27;130.43;;;10.70;91.10;;;;;;12608330;28;20032;-74
2024/01/06 09:47:12;;;;;;;124.85;120.15;;;10.70;91.10;;;;;;12607182;28;20029;-74
2024/01/06 09:53:14;;;;;;;100.38;96.28;;;10.80;91.00;;;;;;12607226;28;20438;-74
2024/01/06 09:59:16;;;;;;;68.97;65.70;;;10.80;91.00;;;;;;12606763;28;20449;-75
2024/01/06 10:05:18;;;;;;;92.10;88.53;;;10.80;91.00;;;;;;12589627;28;20036;-75
2024/01/06 10:11:22;;;;;;;122.22;117.43;;;10.80;91.00;;;;;;12588536;28;20029;-75
2024/01/06 10:17:24;;;;;;;102.03;98.07;;;10.80;91.00;;;;;;12605792;28;20032;-74
2024/01/06 10:23:29;;;;;;;59.30;56.58;;;10.90;91.00;;;;;;12587780;28;20044;-74
2024/01/06 10:29:32;;;;;;;94.05;90.13;;;10.90;91.00;;;;;;12587734;28;20039;-75
2024/01/06 10:35:35;;;;;;;90.93;87.40;;;10.90;91.00;;;;;;12587572;28;20157;-75
2024/01/06 10:41:42;;;;;;;37.42;35.67;;;10.90;91.00;;;;;;12587113;28;20036;-75
2024/01/06 10:47:45;;;;;;;110.32;106.05;;;10.90;91.00;;;;;;12604794;28;20024;-74
2024/01/06 10:53:48;;;;;;;113.82;109.43;;;10.90;91.00;;;;;;12604569;28;20350;-75
2024/01/06 10:59:52;;;;;;;41.50;39.45;;;10.90;91.00;;;;;;12586550;28;20032;-75
2024/01/06 11:05:53;;;;;;;86.15;82.82;;;10.90;91.00;;;;;;12604231;28;20353;-74
2024/01/06 11:11:55;;;;;;;53.72;51.30;;;10.90;91.00;;;;;;12586300;28;20433;-75
2024/01/06 11:17:58;;;;;;;61.67;58.95;;;10.90;91.00;;;;;;12585921;28;20357;-75
2024/01/06 11:24:24;;;;;;;80.80;77.53;;;11.00;91.00;;;;;;12603678;28;20029;-75
2024/01/06 11:30:28;;;;;;;120.00;115.38;;;10.90;91.00;;;;;;12616898;28;20029;-75
2024/01/06 11:36:31;;;;;;;94.07;90.50;;;11.00;91.00;;;;;;12602035;28;20025;-75
2024/01/06 11:42:34;;;;;;;38.03;36.22;;;11.00;91.00;;;;;;12619778;28;20041;-75
2024/01/06 11:48:37;;;;;;;66.45;63.67;;;11.00;91.00;;;;;;12619826;28;20035;-75
2024/01/06 11:54:40;;;;;;;51.92;49.45;;;11.00;91.00;;;;;;12619511;28;20040;-75
2024/01/06 12:00:42;;;;;;;75.95;72.93;;;11.00;91.00;;;;;;12585359;28;20048;-75
2024/01/06 12:06:44;;;;;;;106.32;102.35;;;11.00;90.90;;;;;;12584972;28;20349;-75
2024/01/06 12:12:58;;;;;;;71.35;68.60;;;11.00;91.00;;;;;;12619256;28;20033;-75
2024/01/06 12:19:03;;;;;;;66.07;63.38;;;11.00;91.10;;;;;;12611047;28;20040;-75
2024/01/06 12:25:06;;;;;;;64.10;61.50;;;11.00;91.00;;;;;;12618941;28;20024;-73
2024/01/06 12:31:12;;;;;;;28.83;27.42;;;11.10;91.00;;;;;;12618766;28;20028;-73
2024/01/06 12:37:45;;;;;;;29.38;27.90;;;11.10;91.00;;;;;;12618254;28;20051;-73
2024/01/06 12:43:47;;;;;;;78.20;75.10;;;11.10;91.00;;;;;;12610624;28;20043;-73
2024/01/06 12:49:49;;;;;;;53.75;51.42;;;11.10;91.00;;;;;;12610344;28;20036;-73
2024/01/06 12:55:51;;;;;;;64.60;61.97;;;11.10;91.00;;;;;;12610038;28;20036;-74
2024/01/06 13:01:53;;;;;;;73.22;69.80;;;11.10;91.00;;;;;;12609809;28;20044;-74
2024/01/06 13:07:54;;;;;;;62.85;60.22;;;11.10;91.00;;;;;;12592288;28;20051;-74
2024/01/06 13:13:56;;;;;;;34.05;32.42;;;11.10;91.00;;;;;;12609249;28;20037;-73
2024/01/06 13:19:58;;;;;;;48.17;46.15;;;11.10;91.00;;;;;;12591089;28;20341;-73
2024/01/06 13:25:59;;;;;;;74.93;72.10;;;11.10;91.00;;;;;;12608669;28;20365;-73
2024/01/06 13:32:01;;;;;;;61.70;59.38;;;11.10;90.90;;;;;;12591058;28;20445;-73
2024/01/06 13:38:08;;;;;;;87.70;84.30;;;11.00;90.90;;;;;;12608204;28;20441;-73
2024/01/06 13:44:10;;;;;;;65.80;63.10;;;11.00;90.90;;;;;;12573377;28;20043;-74
2024/01/06 13:50:13;;;;;;;41.03;39.13;;;11.10;91.00;;;;;;12606980;28;20041;-74
2024/01/06 13:56:15;;;;;;;52.33;50.03;;;11.10;90.90;;;;;;12607038;28;20024;-74
2024/01/06 14:02:17;;;;;;;58.90;56.63;;;11.00;90.90;;;;;;12588780;28;20041;-74
2024/01/06 14:08:19;;;;;;;52.38;50.35;;;11.10;90.90;;;;;;12606655;28;20032;-74
2024/01/06 14:14:21;;;;;;;51.90;49.65;;;11.00;90.80;;;;;;12606344;28;20039;-74
2024/01/06 14:20:22;;;;;;;52.15;49.97;;;11.00;90.90;;;;;;12588191;28;20028;-75
2024/01/06 14:26:24;;;;;;;76.18;73.13;;;11.00;90.80;;;;;;12606368;28;20417;-75
2024/01/06 14:32:26;;;;;;;62.92;60.47;;;10.90;90.80;;;;;;12605408;28;20036;-75
2024/01/06 14:38:28;;;;;;;31.95;30.45;;;11.00;90.80;;;;;;12605123;28;20059;-75
2024/01/06 14:44:29;;;;;;;94.25;90.55;;;10.90;90.70;;;;;;12570488;28;20037;-75
2024/01/06 14:50:31;;;;;;;63.85;61.47;;;10.90;90.80;;;;;;12604678;28;20037;-75
2024/01/06 14:56:33;;;;;;;110.80;106.30;;;10.90;90.70;;;;;;12610702;22;20052;-74
2024/01/06 15:02:35;;;;;;;99.10;95.53;;;10.90;90.70;;;;;;12603458;28;20036;-74
2024/01/06 15:08:36;;;;;;;56.58;54.38;;;10.80;90.70;;;;;;12603127;28;20036;-75
2024/01/06 15:14:38;;;;;;;75.00;72.15;;;10.80;90.80;;;;;;12604029;28;20028;-73
2024/01/06 15:20:40;;;;;;;108.50;104.57;;;10.80;90.70;;;;;;12602423;28;20039;-75
2024/01/06 15:26:42;;;;;;;148.00;142.77;;;10.80;90.70;;;;;;12603549;28;20028;-73
2024/01/06 15:32:45;;;;;;;167.85;161.80;;;10.80;90.50;;;;;;12603587;28;20025;-74
2024/01/06 15:38:46;;;;;;;64.70;62.13;;;10.70;90.50;;;;;;12601863;28;20041;-74
2024/01/06 15:44:48;;;;;;;141.65;136.35;;;10.70;90.50;;;;;;12602507;28;20317;-74
2024/01/06 15:50:51;;;;;;;38.63;37.08;;;10.70;90.50;;;;;;12602626;28;20040;-75
2024/01/06 15:56:53;;;;;;;156.23;150.77;;;10.70;90.40;;;;;;12603578;28;20060;-74
2024/01/06 16:02:55;;;;;;;72.97;70.22;;;10.70;90.50;;;;;;12603426;28;20326;-74
2024/01/06 16:08:57;;;;;;;158.95;153.35;;;10.70;90.60;;;;;;12602704;28;20025;-75
2024/01/06 16:14:58;;;;;;;183.63;177.15;;;10.70;90.40;;;;;;12607901;28;20365;-75
2024/01/06 16:21:02;;;;;;;93.10;89.75;;;10.60;90.50;;;;;;12612200;28;20044;-75
2024/01/06 16:27:04;;;;;;;173.93;167.75;;;10.70;90.60;;;;;;12612063;28;20472;-75
2024/01/06 16:33:06;;;;;;;166.80;160.95;;;10.70;90.30;;;;;;12610900;28;20437;-76
2024/01/06 16:39:08;;;;;;;69.65;66.90;;;10.60;90.40;;;;;;12609666;28;20032;-75
2024/01/06 16:45:10;;;;;;;167.93;161.93;;;10.60;90.20;;;;;;12610644;28;20032;-76
2024/01/06 16:51:13;;;;;;;151.05;145.68;;;10.50;90.20;;;;;;12609221;28;20040;-75
2024/01/06 16:57:14;;;;;;;43.90;42.20;;;10.60;90.30;;;;;;12608809;28;20040;-74
2024/01/06 17:03:16;;;;;;;131.75;127.10;;;10.50;90.20;;;;;;12609742;28;20039;-75
2024/01/06 17:09:18;;;;;;;50.45;47.58;;;10.50;90.30;;;;;;12609505;28;20028;-73
2024/01/06 17:15:24;;;;;;;176.90;170.57;;;10.50;90.30;;;;;;12609373;28;20043;-75
2024/01/06 17:21:26;;;;;;;78.97;76.05;;;10.50;90.10;;;;;;12588540;28;20044;-75
2024/01/06 17:27:27;;;;;;;17.33;16.42;;;10.50;90.10;;;;;;12559963;28;20029;-74
2024/01/06 17:33:30;;;;;;;38.42;36.70;;;10.40;90.10;;;;;;12608220;28;20131;-72
2024/01/06 17:39:31;;;;;;;57.42;55.17;;;10.40;90.10;;;;;;12607456;28;20353;-74
2024/01/06 17:45:34;;;;;;;162.50;156.88;;;10.40;90.20;;;;;;12591036;28;20429;-73
2024/01/06 17:51:36;;;;;;;81.78;78.80;;;10.40;90.20;;;;;;12606008;28;20356;-74
2024/01/06 17:57:37;;;;;;;104.10;100.30;;;10.40;89.80;;;;;;12655000;28;20465;-73
2024/01/06 18:03:39;;;;;;;72.30;69.53;;;10.30;89.80;;;;;;12657759;28;20032;-74
2024/01/06 18:09:41;;;;;;;24.95;23.75;;;10.30;90.10;;;;;;12639496;28;20035;-75
2024/01/06 18:15:43;;;;;;;79.85;76.95;;;10.30;90.20;;;;;;12657396;28;20039;-75
2024/01/06 18:21:44;;;;;;;77.40;74.53;;;10.20;90.20;;;;;;12638544;28;20054;-74
2024/01/06 18:27:46;;;;;;;137.68;132.80;;;10.30;90.30;;;;;;12656682;28;20039;-75
2024/01/06 18:33:48;;;;;;;47.92;46.03;;;10.30;90.10;;;;;;12638528;28;20340;-75
2024/01/06 18:39:50;;;;;;;32.03;30.58;;;10.30;90.10;;;;;;12656029;28;20031;-74
2024/01/06 18:45:51;;;;;;;52.70;50.70;;;10.20;90.20;;;;;;12622229;28;20050;-75
2024/01/06 18:51:53;;;;;;;20.92;19.95;;;10.30;90.10;;;;;;12655396;28;20217;-75
2024/01/06 18:57:55;;;;;;;27.50;26.20;;;10.20;89.90;;;;;;12636760;28;20086;-75
2024/01/06 19:03:57;;;;;;;48.50;46.55;;;10.20;90.10;;;;;;12637068;28;20047;-74
2024/01/06 19:09:59;;;;;;;34.88;33.40;;;10.20;90.10;;;;;;12654343;28;20437;-75
2024/01/06 19:16:01;;;;;;;30.33;28.98;;;10.20;90.00;;;;;;12654210;28;20031;-75
2024/01/06 19:22:02;;;;;;;57.38;55.00;;;10.20;90.20;;;;;;12653930;28;20037;-73
2024/01/06 19:28:05;;;;;;;39.95;38.05;;;10.20;90.20;;;;;;12635910;28;20031;-73
2024/01/06 19:34:07;;;;;;;24.48;23.27;;;10.30;90.30;;;;;;12635852;28;20035;-74
2024/01/06 19:40:09;;;;;;;88.78;85.43;;;10.20;90.20;;;;;;12653683;28;20032;-74
2024/01/06 19:46:11;;;;;;;137.57;132.75;;;10.30;90.30;;;;;;12635613;28;20103;-74
2024/01/06 19:52:14;;;;;;;100.28;96.72;;;10.30;90.00;;;;;;12644745;28;20042;-74
2024/01/06 19:58:16;;;;;;;55.55;53.17;;;10.30;90.20;;;;;;12663134;28;20055;-74
2024/01/06 20:04:18;;;;;;;15.90;15.00;;;10.20;90.20;;;;;;12662904;28;20359;-74
2024/01/06 20:10:20;;;;;;;27.92;26.70;;;10.20;90.00;;;;;;12662750;28;20020;-74
2024/01/06 20:16:21;;;;;;;136.40;131.57;;;10.20;90.10;;;;;;12644397;28;20032;-74
2024/01/06 20:22:23;;;;;;;118.43;114.18;;;10.20;90.20;;;;;;12662083;28;20028;-74
2024/01/06 20:28:25;;;;;;;40.25;38.50;;;10.20;90.10;;;;;;12643827;28;20032;-74
2024/01/06 20:34:27;;;;;;;42.35;40.55;;;10.20;90.10;;;;;;12661553;28;20028;-73
2024/01/06 20:40:28;;;;;;;36.30;34.60;;;10.20;90.20;;;;;;12661212;28;20043;-73
2024/01/06 20:46:30;;;;;;;41.30;39.53;;;10.20;90.20;;;;;;12661027;28;20411;-73
2024/01/06 20:52:32;;;;;;;44.70;42.83;;;10.20;90.30;;;;;;12660056;28;20036;-73
2024/01/06 20:58:34;;;;;;;35.28;33.72;;;10.10;90.20;;;;;;12659669;28;20032;-73
2024/01/06 21:04:35;;;;;;;26.15;24.88;;;10.10;90.10;;;;;;12660223;28;20455;-73
2024/01/06 21:10:37;;;;;;;48.00;45.95;;;10.10;90.30;;;;;;12641910;28;20036;-74
2024/01/06 21:16:39;;;;;;;103.25;99.47;;;10.20;90.40;;;;;;12641601;28;20036;-74
2024/01/06 21:22:43;;;;;;;70.65;67.88;;;10.20;90.30;;;;;;12659243;28;20046;-74
2024/01/06 21:28:46;;;;;;;107.70;103.60;;;10.20;90.10;;;;;;12659049;28;20032;-74
2024/01/06 21:34:48;;;;;;;26.98;25.73;;;10.20;90.30;;;;;;12640863;28;20429;-74
2024/01/06 21:40:49;;;;;;;26.00;24.58;;;10.20;90.40;;;;;;12640589;28;20051;-74
2024/01/06 21:46:51;;;;;;;37.80;36.05;;;10.20;90.30;;;;;;12658141;28;20024;-74
2024/01/06 21:52:53;;;;;;;29.90;28.50;;;10.20;90.40;;;;;;12657813;28;20028;-74
2024/01/06 21:58:56;;;;;;;61.97;59.40;;;10.30;90.30;;;;;;12657434;28;20036;-74
2024/01/06 22:04:57;;;;;;;131.68;126.95;;;10.40;90.20;;;;;;12639280;28;20043;-74
2024/01/06 22:10:59;;;;;;;137.63;132.57;;;10.40;90.20;;;;;;12656618;28;20036;-74
2024/01/06 22:17:01;;;;;;;53.80;51.40;;;10.50;90.20;;;;;;12638655;28;20032;-74
2024/01/06 22:23:03;;;;;;;24.67;23.45;;;10.40;90.10;;;;;;12638296;28;20353;-74
2024/01/06 22:29:06;;;;;;;54.47;51.83;;;10.50;90.10;;;;;;12638177;28;20020;-74
2024/01/06 22:35:08;;;;;;;60.13;57.58;;;10.50;90.10;;;;;;12655911;28;20028;-74
2024/01/06 22:41:10;;;;;;;88.32;84.90;;;10.40;90.10;;;;;;12637514;28;20449;-74
2024/01/06 22:47:12;;;;;;;65.63;62.92;;;10.40;90.10;;;;;;12656961;28;20230;-74
2024/01/06 22:53:14;;;;;;;33.60;32.05;;;10.40;90.00;;;;;;12655160;28;20036;-74
2024/01/06 22:59:16;;;;;;;50.50;48.10;;;10.30;90.00;;;;;;12662072;22;20054;-74
2024/01/06 23:05:18;;;;;;;43.67;41.63;;;10.40;90.00;;;;;;12654547;28;20036;-74
2024/01/06 23:11:19;;;;;;;29.90;28.33;;;10.30;90.00;;;;;;12654372;28;20443;-74
2024/01/06 23:17:23;;;;;;;60.22;57.78;;;10.30;90.00;;;;;;12655517;28;20052;-74
2024/01/06 23:23:25;;;;;;;44.97;42.92;;;10.30;90.00;;;;;;12635340;28;20039;-74
2024/01/06 23:29:27;;;;;;;32.47;30.70;;;10.30;90.00;;;;;;12654663;28;20028;-74
2024/01/06 23:35:29;;;;;;;21.70;20.55;;;10.30;90.00;;;;;;12653748;28;20433;-74
2024/01/06 23:41:31;;;;;;;103.72;99.93;;;10.30;90.00;;;;;;12653462;28;20436;-74
2024/01/06 23:47:33;;;;;;;32.45;30.75;;;10.30;89.90;;;;;;12635448;28;20032;-74
2024/01/06 23:53:35;;;;;;;35.28;33.60;;;10.20;90.00;;;;;;12653402;28;20032;-74
2024/01/06 23:59:40;;;;;;;40.30;38.42;;;10.20;90.00;;;;;;12685687;28;20031;-74
